Time;durP1;ratioP1;P1;durP2;ratioP2;P2;SDS_P1;SDS_P2;PMS_P1;PMS_P2;Temp;Humidity;BMP_temperature;BMP_pressure;BME280_temperature;BME280_humidity;BME280_pressure;Samples;Min_cycle;Max_cycle;Signal;HPM_P1;HPM_P2
2024/01/22 00:01:57;;;;;;;4.25;2.30;;;2.40;99.90;;;;;;4990315;28;20088;-73
2024/01/22 00:04:23;;;;;;;4.95;2.22;;;2.40;99.90;;;;;;4988314;28;20026;-72
2024/01/22 00:06:52;;;;;;;6.20;2.42;;;2.40;99.90;;;;;;4990999;28;20061;-73
2024/01/22 00:09:17;;;;;;;5.65;2.40;;;2.40;99.90;;;;;;4990411;28;20022;-72
2024/01/22 00:11:43;;;;;;;4.43;2.28;;;2.50;99.90;;;;;;4990312;28;20029;-73
2024/01/22 00:14:08;;;;;;;5.63;2.47;;;2.50;99.90;;;;;;4989073;28;20053;-72
2024/01/22 00:16:38;;;;;;;5.85;2.90;;;2.50;99.90;;;;;;4986672;28;20056;-73
2024/01/22 00:19:04;;;;;;;7.57;2.90;;;2.50;99.90;;;;;;4987800;28;20034;-73
2024/01/22 00:21:30;;;;;;;5.80;2.60;;;2.50;99.90;;;;;;4991174;28;20105;-72
2024/01/22 00:23:56;;;;;;;5.53;2.60;;;2.40;99.90;;;;;;4987100;28;20037;-72
2024/01/22 00:26:22;;;;;;;5.95;2.42;;;2.50;99.90;;;;;;4984228;28;20076;-73
2024/01/22 00:28:47;;;;;;;5.13;2.30;;;2.50;99.90;;;;;;4985924;28;20046;-72
2024/01/22 00:31:13;;;;;;;6.45;2.67;;;2.40;99.90;;;;;;4990525;28;20402;-72
2024/01/22 00:33:39;;;;;;;6.00;2.45;;;2.40;99.90;;;;;;4988869;28;20106;-72
2024/01/22 00:36:04;;;;;;;7.90;2.90;;;2.40;99.90;;;;;;4987440;28;20073;-72
2024/01/22 00:38:30;;;;;;;6.72;3.40;;;2.40;99.90;;;;;;4991164;28;20057;-72
2024/01/22 00:40:56;;;;;;;6.00;2.90;;;2.40;99.90;;;;;;4989240;28;20026;-72
2024/01/22 00:43:22;;;;;;;9.93;3.15;;;2.40;99.90;;;;;;4987641;28;20022;-72
2024/01/22 00:45:49;;;;;;;4.43;2.65;;;2.50;99.90;;;;;;4985577;28;20464;-72
2024/01/22 00:48:15;;;;;;;4.35;2.58;;;2.40;99.90;;;;;;4988316;28;20535;-71
2024/01/22 00:50:40;;;;;;;9.40;3.17;;;2.50;99.90;;;;;;4989643;28;20058;-72
2024/01/22 00:53:06;;;;;;;6.63;2.17;;;2.50;99.90;;;;;;4988970;28;20034;-72
2024/01/22 00:55:31;;;;;;;6.07;2.20;;;2.50;99.90;;;;;;4990507;28;20168;-72
2024/01/22 00:57:57;;;;;;;4.55;2.42;;;2.50;99.90;;;;;;4987258;28;20478;-72
2024/01/22 01:00:23;;;;;;;7.63;2.65;;;2.50;99.90;;;;;;4988941;28;20398;-72
2024/01/22 01:02:51;;;;;;;6.35;2.85;;;2.60;99.90;;;;;;4988592;28;20557;-72
2024/01/22 01:05:17;;;;;;;4.30;2.20;;;2.50;99.90;;;;;;4991456;28;20031;-71
2024/01/22 01:07:42;;;;;;;6.15;2.90;;;2.50;99.90;;;;;;4992680;28;20103;-71
2024/01/22 01:10:08;;;;;;;6.25;3.17;;;2.50;99.90;;;;;;4992986;28;20030;-71
2024/01/22 01:12:34;;;;;;;6.28;3.03;;;2.50;99.90;;;;;;4987630;28;20022;-72
2024/01/22 01:14:59;;;;;;;5.13;2.60;;;2.50;99.90;;;;;;4989281;28;20502;-72
2024/01/22 01:17:25;;;;;;;5.22;2.53;;;2.50;99.90;;;;;;4989781;28;20018;-71
2024/01/22 01:19:50;;;;;;;4.40;2.35;;;2.50;99.90;;;;;;4992113;28;20081;-72
2024/01/22 01:22:16;;;;;;;7.97;2.65;;;2.50;99.90;;;;;;4984459;28;20139;-71
2024/01/22 01:24:41;;;;;;;4.78;2.63;;;2.50;99.90;;;;;;4989661;28;20026;-72
2024/01/22 01:27:07;;;;;;;4.35;2.72;;;2.50;99.90;;;;;;4990788;28;20030;-72
2024/01/22 01:29:32;;;;;;;3.35;1.98;;;2.50;99.90;;;;;;4990566;28;20041;-72
2024/01/22 01:31:58;;;;;;;5.50;2.25;;;2.50;99.90;;;;;;4989006;28;20038;-72
2024/01/22 01:34:24;;;;;;;6.78;2.65;;;2.60;99.90;;;;;;4987628;28;20117;-72
2024/01/22 01:36:49;;;;;;;5.55;3.10;;;2.60;99.90;;;;;;4984960;28;20395;-72
2024/01/22 01:39:15;;;;;;;5.53;2.45;;;2.60;99.90;;;;;;4990940;28;20030;-72
2024/01/22 01:41:40;;;;;;;4.18;1.65;;;2.60;99.90;;;;;;4992954;28;20066;-72
2024/01/22 01:44:06;;;;;;;5.18;2.65;;;2.70;99.90;;;;;;4991785;28;20490;-72
2024/01/22 01:46:31;;;;;;;4.72;2.28;;;2.70;99.90;;;;;;4988897;28;20035;-72
2024/01/22 01:48:58;;;;;;;4.80;2.33;;;2.70;99.90;;;;;;4987965;28;20030;-72
2024/01/22 01:51:24;;;;;;;4.53;2.47;;;2.80;99.90;;;;;;4994498;28;20035;-72
2024/01/22 01:53:51;;;;;;;8.43;2.55;;;2.80;99.90;;;;;;4991480;28;20117;-71
2024/01/22 01:56:17;;;;;;;5.72;2.70;;;2.80;99.90;;;;;;4989828;28;20073;-71
2024/01/22 01:58:43;;;;;;;4.22;2.00;;;2.80;99.90;;;;;;4990147;28;20034;-71
2024/01/22 02:01:09;;;;;;;3.75;2.20;;;2.80;99.90;;;;;;4990506;28;20025;-72
2024/01/22 02:03:35;;;;;;;3.50;2.22;;;2.70;99.90;;;;;;4992682;28;20445;-72
2024/01/22 02:06:01;;;;;;;4.93;2.50;;;2.70;99.90;;;;;;4996344;28;20034;-71
2024/01/22 02:08:27;;;;;;;8.15;2.25;;;2.70;99.90;;;;;;4997014;28;20030;-71
2024/01/22 02:10:52;;;;;;;6.13;2.92;;;2.70;99.90;;;;;;4996875;28;20038;-71
2024/01/22 02:13:18;;;;;;;6.35;2.03;;;2.70;99.90;;;;;;4985699;28;20030;-72
2024/01/22 02:15:43;;;;;;;5.68;2.08;;;2.70;99.90;;;;;;4988527;28;20023;-72
2024/01/22 02:18:09;;;;;;;4.38;2.08;;;2.70;99.90;;;;;;4991073;28;20030;-72
2024/01/22 02:20:35;;;;;;;5.97;2.85;;;2.70;99.90;;;;;;4990750;28;20037;-73
2024/01/22 02:23:04;;;;;;;7.38;2.50;;;2.70;99.90;;;;;;4988703;28;20034;-72
2024/01/22 02:25:29;;;;;;;6.18;2.72;;;2.70;99.90;;;;;;4988649;28;20028;-71
2024/01/22 02:27:55;;;;;;;6.30;2.70;;;2.60;99.90;;;;;;4995813;28;20022;-71
2024/01/22 02:30:20;;;;;;;5.90;3.20;;;2.50;99.90;;;;;;4996107;28;20030;-71
2024/01/22 02:32:46;;;;;;;5.00;3.05;;;2.40;99.90;;;;;;4987290;28;20393;-72
2024/01/22 02:35:11;;;;;;;7.70;3.08;;;2.30;99.90;;;;;;4991754;28;20064;-71
2024/01/22 02:37:38;;;;;;;10.55;3.60;;;2.20;99.90;;;;;;4988406;28;20034;-71
2024/01/22 02:40:04;;;;;;;8.60;4.03;;;2.00;99.90;;;;;;4992488;28;20109;-71
2024/01/22 02:42:30;;;;;;;5.32;3.42;;;1.90;99.90;;;;;;4992460;28;20105;-72
2024/01/22 02:44:55;;;;;;;7.72;3.33;;;1.80;99.90;;;;;;4992995;28;20520;-71
2024/01/22 02:47:21;;;;;;;5.25;3.30;;;1.70;99.90;;;;;;4988713;28;20102;-71
2024/01/22 02:49:46;;;;;;;6.43;3.72;;;1.60;99.90;;;;;;4991322;28;20489;-71
2024/01/22 02:52:12;;;;;;;10.30;4.88;;;1.50;99.90;;;;;;4996092;28;20036;-71
2024/01/22 02:54:38;;;;;;;9.30;4.35;;;1.40;99.90;;;;;;4995873;28;20038;-72
2024/01/22 02:57:04;;;;;;;8.02;3.88;;;1.40;99.90;;;;;;4994866;28;20026;-72
2024/01/22 02:59:29;;;;;;;8.07;4.45;;;1.30;99.90;;;;;;4982246;28;20527;-72
2024/01/22 03:01:55;;;;;;;8.38;4.53;;;1.30;99.90;;;;;;4977780;28;20027;-72
2024/01/22 03:04:21;;;;;;;9.80;4.82;;;1.20;99.90;;;;;;4995755;28;20027;-70
2024/01/22 03:06:46;;;;;;;7.65;4.22;;;1.20;99.90;;;;;;4992627;28;20041;-72
2024/01/22 03:09:12;;;;;;;8.20;3.70;;;1.20;99.90;;;;;;4988087;28;20040;-71
2024/01/22 03:11:37;;;;;;;8.52;4.22;;;1.10;99.90;;;;;;4990167;28;20394;-72
2024/01/22 03:14:03;;;;;;;7.40;3.60;;;1.10;99.90;;;;;;4988701;28;20038;-71
2024/01/22 03:16:29;;;;;;;10.75;4.60;;;1.10;99.90;;;;;;4990844;28;20449;-72
2024/01/22 03:18:54;;;;;;;7.05;3.88;;;1.00;99.90;;;;;;4990272;28;20421;-71
2024/01/22 03:21:20;;;;;;;7.75;3.35;;;1.00;99.90;;;;;;4993446;28;20060;-72
2024/01/22 03:23:45;;;;;;;7.55;3.92;;;1.00;99.90;;;;;;4990683;28;20041;-73
2024/01/22 03:26:21;;;;;;;9.73;4.07;;;1.00;99.90;;;;;;4989966;28;20427;-73
2024/01/22 03:28:49;;;;;;;10.02;4.15;;;1.00;99.90;;;;;;4988723;28;20034;-72
2024/01/22 03:31:20;;;;;;;5.20;3.55;;;0.90;99.90;;;;;;4988738;28;20030;-72
2024/01/22 03:33:46;;;;;;;11.85;4.57;;;0.90;99.90;;;;;;4992931;28;20065;-72
2024/01/22 03:36:11;;;;;;;8.48;3.63;;;0.90;99.90;;;;;;4987113;28;20502;-72
2024/01/22 03:38:38;;;;;;;7.32;3.95;;;0.90;99.90;;;;;;4984183;28;20371;-72
2024/01/22 03:41:04;;;;;;;8.15;4.00;;;0.90;99.90;;;;;;4988533;28;20042;-72
2024/01/22 03:43:29;;;;;;;6.47;3.08;;;0.90;99.90;;;;;;4990889;28;20143;-72
2024/01/22 03:45:55;;;;;;;7.70;3.30;;;0.90;99.90;;;;;;4986262;28;20026;-71
2024/01/22 03:48:20;;;;;;;7.22;3.22;;;1.10;99.90;;;;;;4987969;28;20034;-72
2024/01/22 03:50:46;;;;;;;6.53;3.22;;;1.10;99.90;;;;;;4987562;28;20125;-73
2024/01/22 03:53:12;;;;;;;11.90;3.42;;;1.20;99.90;;;;;;4987194;28;20026;-72
2024/01/22 03:55:37;;;;;;;6.28;2.72;;;1.20;99.90;;;;;;4986614;28;20023;-72
2024/01/22 03:58:03;;;;;;;8.48;2.88;;;1.40;99.90;;;;;;4991120;28;20505;-72
2024/01/22 04:00:28;;;;;;;5.68;2.67;;;1.50;99.90;;;;;;4990153;28;20390;-72
2024/01/22 04:02:54;;;;;;;6.35;2.83;;;1.60;99.90;;;;;;4989685;28;20026;-73
2024/01/22 04:05:19;;;;;;;6.25;2.60;;;1.80;99.90;;;;;;4990507;28;20030;-72
2024/01/22 04:07:45;;;;;;;6.30;2.88;;;1.90;99.90;;;;;;4990981;28;20046;-72
2024/01/22 04:10:10;;;;;;;6.30;3.15;;;2.00;99.90;;;;;;4986637;28;20398;-72
2024/01/22 04:12:37;;;;;;;6.22;2.58;;;2.10;99.90;;;;;;4989021;28;20109;-72
2024/01/22 04:15:04;;;;;;;4.88;2.70;;;2.20;99.90;;;;;;4988303;28;20034;-72
2024/01/22 04:17:31;;;;;;;6.63;2.25;;;2.30;99.90;;;;;;4988066;28;20125;-73
2024/01/22 04:19:56;;;;;;;5.50;2.20;;;2.40;99.90;;;;;;4986360;28;20098;-73
2024/01/22 04:22:22;;;;;;;4.45;2.10;;;2.50;99.90;;;;;;4990569;28;20521;-73
2024/01/22 04:24:48;;;;;;;5.30;2.50;;;2.50;99.90;;;;;;4988400;28;20045;-73
2024/01/22 04:27:13;;;;;;;4.85;2.40;;;2.60;99.90;;;;;;4987964;28;20031;-72
2024/01/22 04:29:39;;;;;;;5.18;2.20;;;2.70;99.90;;;;;;4991014;28;20081;-72
2024/01/22 04:32:05;;;;;;;5.50;2.92;;;2.80;99.90;;;;;;4989657;28;20061;-73
2024/01/22 04:34:31;;;;;;;4.95;2.45;;;2.90;99.90;;;;;;4988906;28;20037;-73
2024/01/22 04:36:57;;;;;;;5.18;2.60;;;2.90;99.90;;;;;;4992571;28;20481;-72
2024/01/22 04:39:24;;;;;;;5.55;2.17;;;2.90;99.90;;;;;;4988982;28;20023;-72
2024/01/22 04:41:50;;;;;;;6.63;2.60;;;3.00;99.90;;;;;;4992896;28;20018;-72
2024/01/22 04:44:16;;;;;;;4.63;2.60;;;3.00;99.90;;;;;;4985714;28;20022;-73
2024/01/22 04:46:42;;;;;;;6.00;2.30;;;3.00;99.90;;;;;;4988173;28;20097;-73
2024/01/22 04:49:08;;;;;;;8.07;2.65;;;3.00;99.90;;;;;;4986179;28;20077;-73
2024/01/22 04:51:34;;;;;;;4.53;2.17;;;3.00;99.90;;;;;;4989909;28;20081;-73
2024/01/22 04:53:59;;;;;;;7.78;2.95;;;3.00;99.90;;;;;;4991030;28;20485;-73
2024/01/22 04:56:25;;;;;;;3.85;2.42;;;3.00;99.90;;;;;;4986034;28;20049;-72
2024/01/22 04:58:50;;;;;;;6.80;2.72;;;3.10;99.90;;;;;;4989777;28;20018;-73
2024/01/22 05:01:16;;;;;;;4.00;2.42;;;3.10;99.90;;;;;;4987575;28;20037;-73
2024/01/22 05:03:42;;;;;;;5.93;2.28;;;3.10;99.90;;;;;;4988087;28;20022;-72
2024/01/22 05:06:07;;;;;;;4.97;2.35;;;3.10;99.90;;;;;;4982022;28;20426;-73
2024/01/22 05:08:33;;;;;;;4.57;2.30;;;3.10;99.90;;;;;;4980520;28;20034;-73
2024/01/22 05:10:58;;;;;;;6.15;2.38;;;3.10;99.90;;;;;;4987931;28;20113;-73
2024/01/22 05:13:24;;;;;;;6.03;2.30;;;3.10;99.90;;;;;;4988110;28;20051;-73
2024/01/22 05:15:50;;;;;;;4.78;2.83;;;3.10;99.90;;;;;;4988562;28;20034;-73
2024/01/22 05:18:15;;;;;;;4.93;1.98;;;3.20;99.90;;;;;;4988208;28;20054;-72
2024/01/22 05:20:41;;;;;;;4.93;2.85;;;3.30;99.90;;;;;;4991178;28;20370;-72
2024/01/22 05:23:06;;;;;;;5.80;2.33;;;3.30;99.90;;;;;;4988774;28;20014;-72
2024/01/22 05:25:32;;;;;;;4.90;2.00;;;3.30;99.90;;;;;;4984296;28;20486;-72
2024/01/22 05:27:57;;;;;;;4.53;2.55;;;3.30;99.90;;;;;;4989949;28;20102;-72
2024/01/22 05:30:23;;;;;;;3.38;2.13;;;3.30;99.90;;;;;;4989481;28;20026;-72
2024/01/22 05:32:49;;;;;;;4.57;1.98;;;3.50;99.90;;;;;;4987839;28;20022;-72
2024/01/22 05:35:15;;;;;;;5.13;2.00;;;3.50;99.90;;;;;;4989730;28;20477;-73
2024/01/22 05:37:41;;;;;;;4.25;2.00;;;3.50;99.90;;;;;;4988270;28;20023;-73
2024/01/22 05:40:13;;;;;;;4.35;2.00;;;3.50;99.90;;;;;;4989104;28;20065;-72
2024/01/22 05:42:39;;;;;;;5.85;2.33;;;3.60;99.90;;;;;;4989354;28;20022;-73
2024/01/22 05:45:05;;;;;;;4.18;1.90;;;3.60;99.90;;;;;;4987627;28;20077;-73
2024/01/22 05:47:31;;;;;;;4.35;2.35;;;3.60;99.90;;;;;;4988965;28;20034;-73
2024/01/22 05:49:56;;;;;;;4.38;2.38;;;3.60;99.90;;;;;;4989691;28;20034;-74
2024/01/22 05:52:22;;;;;;;3.53;2.08;;;3.60;99.90;;;;;;4989371;28;20034;-73
2024/01/22 05:54:48;;;;;;;5.03;2.17;;;3.50;99.90;;;;;;4989094;28;20038;-74
2024/01/22 05:57:13;;;;;;;3.72;2.30;;;3.60;99.90;;;;;;4984994;28;20122;-74
2024/01/22 05:59:39;;;;;;;6.80;2.13;;;3.50;99.90;;;;;;4990159;28;20011;-73
2024/01/22 06:02:05;;;;;;;4.00;1.85;;;3.50;99.90;;;;;;4984993;28;20485;-73
2024/01/22 06:04:31;;;;;;;4.18;2.20;;;3.60;99.90;;;;;;4990480;28;20034;-73
2024/01/22 06:06:57;;;;;;;4.15;2.15;;;3.50;99.90;;;;;;4990151;28;20030;-72
2024/01/22 06:09:22;;;;;;;5.35;2.20;;;3.50;99.90;;;;;;4992139;28;20061;-72
2024/01/22 06:11:48;;;;;;;5.28;2.80;;;3.50;99.90;;;;;;4992249;28;20418;-72
2024/01/22 06:14:13;;;;;;;5.30;2.78;;;3.50;99.90;;;;;;4991509;28;20038;-74
2024/01/22 06:16:39;;;;;;;6.50;2.53;;;3.50;99.90;;;;;;4987977;28;20030;-72
2024/01/22 06:19:05;;;;;;;4.57;2.50;;;3.50;99.90;;;;;;4988533;28;20104;-72
2024/01/22 06:21:30;;;;;;;3.13;2.00;;;3.60;99.90;;;;;;4989416;28;20538;-72
2024/01/22 06:23:57;;;;;;;3.55;2.10;;;3.70;99.90;;;;;;4987784;28;20029;-72
2024/01/22 06:26:23;;;;;;;4.75;2.22;;;3.80;99.90;;;;;;4994005;28;20030;-72
2024/01/22 06:28:49;;;;;;;3.88;2.20;;;3.80;99.90;;;;;;4993165;28;20061;-72
2024/01/22 06:31:15;;;;;;;5.68;2.13;;;3.90;99.90;;;;;;4990958;28;20451;-73
2024/01/22 06:33:40;;;;;;;2.75;2.13;;;3.90;99.90;;;;;;5004053;28;20033;-72
2024/01/22 06:36:06;;;;;;;3.97;1.85;;;3.90;99.90;;;;;;4992109;28;20389;-72
2024/01/22 06:38:32;;;;;;;4.70;2.25;;;4.00;99.90;;;;;;4992704;28;20109;-72
2024/01/22 06:40:58;;;;;;;4.32;1.90;;;4.10;99.90;;;;;;4992176;28;20493;-72
2024/01/22 06:43:23;;;;;;;4.65;1.83;;;4.10;99.90;;;;;;4991711;28;20046;-71
2024/01/22 06:45:49;;;;;;;4.53;1.63;;;4.10;99.90;;;;;;4992872;28;20084;-71
2024/01/22 06:48:15;;;;;;;3.40;1.75;;;4.20;99.90;;;;;;4989271;28;20092;-72
2024/01/22 06:50:41;;;;;;;4.18;1.95;;;4.10;99.90;;;;;;4991729;28;20045;-71
2024/01/22 06:53:06;;;;;;;6.45;2.47;;;4.10;99.90;;;;;;4991639;28;20394;-72
2024/01/22 06:55:32;;;;;;;4.82;2.08;;;4.00;99.90;;;;;;4988239;28;20500;-72
2024/01/22 06:57:57;;;;;;;3.50;1.60;;;4.00;99.90;;;;;;4991742;28;20105;-72
2024/01/22 07:00:23;;;;;;;2.65;1.20;;;4.00;99.90;;;;;;4993649;28;20026;-71
2024/01/22 07:02:49;;;;;;;4.10;1.17;;;4.10;99.90;;;;;;4988613;28;20038;-72
2024/01/22 07:05:15;;;;;;;2.25;0.90;;;4.30;99.90;;;;;;4988587;28;20370;-72
2024/01/22 07:07:42;;;;;;;1.65;0.60;;;4.50;99.90;;;;;;4988685;28;20037;-72
2024/01/22 07:10:08;;;;;;;1.23;0.70;;;4.70;99.90;;;;;;4987668;28;20069;-71
2024/01/22 07:12:35;;;;;;;2.25;1.20;;;4.70;99.90;;;;;;4986986;28;20057;-70
2024/01/22 07:15:01;;;;;;;3.92;1.27;;;5.00;99.90;;;;;;4993667;28;20018;-71
2024/01/22 07:17:28;;;;;;;1.60;1.08;;;4.90;99.90;;;;;;4992929;28;20037;-71
2024/01/22 07:19:54;;;;;;;2.10;0.80;;;4.90;99.90;;;;;;4988088;28;20445;-73
2024/01/22 07:22:20;;;;;;;2.67;0.70;;;5.10;99.90;;;;;;4991970;28;20046;-73
2024/01/22 07:24:45;;;;;;;1.88;0.55;;;5.20;99.90;;;;;;4986920;28;20022;-72
2024/01/22 07:27:11;;;;;;;2.03;0.60;;;5.30;99.90;;;;;;4991485;28;20038;-72
2024/01/22 07:29:37;;;;;;;1.35;0.43;;;5.40;99.90;;;;;;4990874;28;20082;-72
2024/01/22 07:32:02;;;;;;;1.00;0.38;;;5.60;99.90;;;;;;4990632;28;20038;-72
2024/01/22 07:34:28;;;;;;;3.30;0.40;;;5.90;99.90;;;;;;4990579;28;20069;-72
2024/01/22 07:36:54;;;;;;;1.27;0.32;;;6.20;99.90;;;;;;4993010;28;20026;-72
2024/01/22 07:39:20;;;;;;;3.03;0.30;;;6.50;99.90;;;;;;4994595;28;20214;-72
2024/01/22 07:41:45;;;;;;;2.88;0.32;;;6.80;99.90;;;;;;4991913;28;20023;-72
2024/01/22 07:44:11;;;;;;;3.45;0.30;;;6.90;99.90;;;;;;4994590;28;20180;-72
2024/01/22 07:46:38;;;;;;;1.73;0.45;;;7.00;99.90;;;;;;4992592;28;20410;-72
2024/01/22 07:49:03;;;;;;;1.25;0.40;;;7.10;99.90;;;;;;4988720;28;20076;-72
2024/01/22 07:51:29;;;;;;;0.88;0.40;;;7.20;99.90;;;;;;4990066;28;20489;-72
2024/01/22 07:53:55;;;;;;;0.85;0.50;;;7.40;99.90;;;;;;4990939;28;20057;-71
2024/01/22 07:56:20;;;;;;;0.70;0.40;;;7.30;99.90;;;;;;4989061;28;20040;-73
2024/01/22 07:58:46;;;;;;;1.02;0.40;;;7.30;99.90;;;;;;4991902;28;20058;-73
2024/01/22 08:01:12;;;;;;;0.93;0.40;;;7.30;99.90;;;;;;4993985;28;20389;-73
2024/01/22 08:03:38;;;;;;;2.15;0.40;;;7.50;99.90;;;;;;4988553;28;20072;-72
2024/01/22 08:06:04;;;;;;;2.47;0.50;;;7.50;99.90;;;;;;4990290;28;20038;-70
2024/01/22 08:08:30;;;;;;;0.52;0.22;;;7.50;99.90;;;;;;4992350;28;20022;-74
2024/01/22 08:10:56;;;;;;;1.00;0.60;;;7.80;99.90;;;;;;4994679;28;20489;-74
2024/01/22 08:13:22;;;;;;;0.40;0.22;;;7.80;99.90;;;;;;4994192;28;20045;-74
2024/01/22 08:15:48;;;;;;;0.52;0.25;;;7.70;99.90;;;;;;4991681;28;20110;-73
2024/01/22 08:18:14;;;;;;;2.08;0.50;;;7.80;99.90;;;;;;4994774;28;20708;-73
2024/01/22 08:20:41;;;;;;;1.67;0.20;;;7.90;99.90;;;;;;4990641;28;20039;-73
2024/01/22 08:23:07;;;;;;;2.08;0.40;;;7.80;99.90;;;;;;4994047;28;20089;-74
2024/01/22 08:25:33;;;;;;;1.83;0.28;;;7.90;99.90;;;;;;4993496;28;20042;-73
2024/01/22 08:27:59;;;;;;;0.30;0.20;;;8.00;99.90;;;;;;4990750;28;20037;-73
2024/01/22 08:30:26;;;;;;;0.45;0.25;;;8.00;99.90;;;;;;4989393;28;20113;-73
2024/01/22 08:32:52;;;;;;;0.52;0.30;;;8.00;99.90;;;;;;4983913;28;20026;-73
2024/01/22 08:35:19;;;;;;;0.47;0.20;;;8.20;99.90;;;;;;4994307;28;20035;-73
2024/01/22 08:37:52;;;;;;;1.08;0.47;;;8.30;99.90;;;;;;4991342;28;20434;-73
2024/01/22 08:40:21;;;;;;;1.58;0.40;;;8.50;99.90;;;;;;4991030;28;20429;-73
2024/01/22 08:42:57;;;;;;;0.73;0.40;;;8.70;99.90;;;;;;4990524;28;20073;-73
2024/01/22 08:45:23;;;;;;;0.75;0.30;;;8.80;99.90;;;;;;4989902;28;20085;-73
2024/01/22 08:47:49;;;;;;;0.40;0.22;;;8.70;99.90;;;;;;4991981;28;20097;-73
2024/01/22 08:50:21;;;;;;;1.08;0.40;;;8.70;99.90;;;;;;4990435;28;20493;-73
2024/01/22 08:52:47;;;;;;;0.82;0.40;;;8.60;99.90;;;;;;4989596;28;20026;-73
2024/01/22 08:55:15;;;;;;;0.40;0.20;;;8.70;99.90;;;;;;4992562;28;20033;-74
2024/01/22 08:57:41;;;;;;;0.43;0.20;;;8.60;99.90;;;;;;4988888;28;20585;-74
2024/01/22 09:00:10;;;;;;;0.82;0.20;;;8.70;99.90;;;;;;4984203;28;20021;-74
2024/01/22 09:02:40;;;;;;;0.65;0.30;;;8.90;99.90;;;;;;4989205;28;20411;-73
2024/01/22 09:05:10;;;;;;;1.00;0.38;;;8.90;99.90;;;;;;4988452;28;20522;-73
2024/01/22 09:07:37;;;;;;;0.30;0.20;;;8.80;99.90;;;;;;4990243;28;20033;-72
2024/01/22 09:10:11;;;;;;;0.20;0.20;;;8.90;99.90;;;;;;4989406;28;20038;-72
2024/01/22 09:12:37;;;;;;;2.38;0.30;;;8.90;99.90;;;;;;4984754;28;20029;-72
2024/01/22 09:15:04;;;;;;;0.98;0.20;;;8.80;99.90;;;;;;4990904;28;20125;-72
2024/01/22 09:17:30;;;;;;;0.70;0.30;;;8.80;99.90;;;;;;4990263;28;20106;-72
2024/01/22 09:19:59;;;;;;;0.60;0.40;;;9.00;99.90;;;;;;4989431;28;20114;-72
2024/01/22 09:22:25;;;;;;;1.40;0.30;;;9.10;99.90;;;;;;4988115;28;20118;-71
2024/01/22 09:24:51;;;;;;;0.50;0.38;;;9.10;99.90;;;;;;4988108;28;20121;-72
2024/01/22 09:27:17;;;;;;;0.40;0.20;;;9.10;99.90;;;;;;4989349;28;20545;-72
2024/01/22 09:29:43;;;;;;;0.50;0.30;;;9.10;99.90;;;;;;4987619;28;20031;-74
2024/01/22 09:32:09;;;;;;;0.85;0.30;;;9.10;99.90;;;;;;4988646;28;20034;-72
2024/01/22 09:34:35;;;;;;;0.95;0.20;;;9.30;99.90;;;;;;4987022;28;20030;-72
2024/01/22 09:37:01;;;;;;;2.42;0.50;;;9.20;99.90;;;;;;4986176;28;20026;-71
2024/01/22 09:39:26;;;;;;;0.77;0.45;;;9.30;99.90;;;;;;4987095;28;20068;-74
2024/01/22 09:41:52;;;;;;;1.77;0.45;;;9.30;99.90;;;;;;4986952;28;20837;-74
2024/01/22 09:44:19;;;;;;;4.35;0.60;;;9.20;99.90;;;;;;4986255;28;20029;-71
2024/01/22 09:46:46;;;;;;;2.60;0.40;;;9.40;99.90;;;;;;4985656;28;20030;-74
2024/01/22 09:49:12;;;;;;;1.05;0.50;;;9.60;99.90;;;;;;4987764;28;20070;-74
2024/01/22 09:51:42;;;;;;;0.63;0.30;;;9.60;99.90;;;;;;4987289;28;20073;-73
2024/01/22 09:54:12;;;;;;;0.88;0.20;;;9.60;99.90;;;;;;4988415;28;20030;-73
2024/01/22 09:56:38;;;;;;;2.38;0.50;;;9.70;99.90;;;;;;4986834;28;20371;-73
2024/01/22 09:59:24;;;;;;;0.40;0.30;;;9.90;99.90;;;;;;4987641;28;20112;-71
2024/01/22 10:01:52;;;;;;;0.57;0.35;;;10.00;99.90;;;;;;4991696;28;20388;-73
2024/01/22 10:04:18;;;;;;;0.80;0.35;;;10.20;99.90;;;;;;4986318;28;20019;-73
2024/01/22 10:06:45;;;;;;;0.80;0.40;;;10.10;99.90;;;;;;4990678;28;20030;-73
2024/01/22 10:09:15;;;;;;;0.70;0.38;;;10.20;99.90;;;;;;4989210;28;20092;-72
2024/01/22 10:11:42;;;;;;;0.90;0.38;;;10.30;99.90;;;;;;4994477;28;20105;-73
2024/01/22 10:14:08;;;;;;;0.85;0.45;;;10.40;99.90;;;;;;4989102;28;20557;-72
2024/01/22 10:16:33;;;;;;;0.15;0.15;;;10.40;99.90;;;;;;4989327;28;20113;-73
2024/01/22 10:19:05;;;;;;;0.70;0.30;;;10.50;99.90;;;;;;4986488;28;20117;-72
2024/01/22 10:21:31;;;;;;;0.75;0.32;;;10.50;99.90;;;;;;4988664;28;20053;-73
2024/01/22 10:24:01;;;;;;;1.13;0.35;;;10.50;99.90;;;;;;4992962;28;20054;-73
2024/01/22 10:26:27;;;;;;;0.82;0.25;;;10.60;99.90;;;;;;4987682;28;20072;-73
2024/01/22 10:28:53;;;;;;;0.98;0.40;;;10.50;99.90;;;;;;4983620;28;20564;-73
2024/01/22 10:31:19;;;;;;;3.40;0.30;;;10.40;99.90;;;;;;4986681;28;20468;-73
2024/01/22 10:33:46;;;;;;;0.70;0.43;;;10.40;99.90;;;;;;4990860;28;20382;-73
2024/01/22 10:36:19;;;;;;;1.00;0.40;;;10.40;99.90;;;;;;4989379;28;20026;-73
2024/01/22 10:38:46;;;;;;;0.87;0.40;;;10.50;99.90;;;;;;4990180;28;20030;-73
2024/01/22 10:41:19;;;;;;;0.50;0.30;;;10.40;99.90;;;;;;4988346;28;20030;-73
2024/01/22 10:43:45;;;;;;;0.70;0.40;;;10.50;99.90;;;;;;4989046;28;20454;-74
2024/01/22 10:46:11;;;;;;;0.60;0.30;;;10.50;99.90;;;;;;4988578;28;20389;-73
2024/01/22 10:48:38;;;;;;;0.82;0.40;;;10.50;99.90;;;;;;4990876;28;20033;-73
2024/01/22 10:51:04;;;;;;;2.13;0.30;;;10.50;99.90;;;;;;4990888;28;20022;-73
2024/01/22 10:53:32;;;;;;;0.77;0.30;;;10.50;99.90;;;;;;4992454;28;20034;-73
2024/01/22 10:56:02;;;;;;;1.58;0.40;;;10.40;99.90;;;;;;4991698;28;20113;-73
2024/01/22 10:58:48;;;;;;;2.22;0.50;;;10.50;99.90;;;;;;4990300;28;20058;-73
2024/01/22 11:01:19;;;;;;;0.70;0.40;;;10.50;99.90;;;;;;4990274;28;20035;-73
2024/01/22 11:03:49;;;;;;;1.08;0.30;;;10.50;99.90;;;;;;4986119;28;20026;-73
2024/01/22 11:06:19;;;;;;;0.68;0.30;;;10.60;99.90;;;;;;4987629;28;20465;-73
2024/01/22 11:08:50;;;;;;;0.65;0.30;;;10.70;99.90;;;;;;4985359;28;20449;-73
2024/01/22 11:11:19;;;;;;;1.17;0.50;;;10.80;99.90;;;;;;4982677;28;20649;-73
2024/01/22 11:13:50;;;;;;;3.40;1.00;;;10.80;99.90;;;;;;4983594;28;20449;-73
2024/01/22 11:16:17;;;;;;;0.22;0.20;;;10.80;99.90;;;;;;4983761;28;20060;-73
2024/01/22 11:19:03;;;;;;;2.92;0.25;;;10.80;99.90;;;;;;4982744;28;20105;-73
2024/01/22 11:21:38;;;;;;;0.40;0.20;;;10.80;99.90;;;;;;4984190;28;20030;-73
2024/01/22 11:24:14;;;;;;;0.32;0.30;;;10.80;99.90;;;;;;4986546;28;20482;-73
2024/01/22 11:27:01;;;;;;;0.30;0.30;;;10.80;99.90;;;;;;4984258;28;20022;-73
2024/01/22 11:29:28;;;;;;;0.20;0.20;;;11.00;99.90;;;;;;4984291;28;20050;-73
2024/01/22 11:31:56;;;;;;;0.32;0.20;;;10.90;99.90;;;;;;4981476;28;20038;-73
2024/01/22 11:34:47;;;;;;;0.40;0.30;;;11.00;99.90;;;;;;4983291;28;20093;-73
2024/01/22 11:37:33;;;;;;;0.63;0.28;;;11.00;99.90;;;;;;4982428;28;20042;-73
2024/01/22 11:39:59;;;;;;;0.57;0.32;;;11.00;99.90;;;;;;4983874;28;20057;-73
2024/01/22 11:42:28;;;;;;;0.85;0.65;;;11.10;99.90;;;;;;4988121;28;20418;-73
2024/01/22 11:44:54;;;;;;;1.67;0.30;;;11.20;99.90;;;;;;4988099;28;20401;-74
2024/01/22 11:47:21;;;;;;;0.50;0.30;;;11.10;99.90;;;;;;4987503;28;20539;-73
2024/01/22 11:49:48;;;;;;;1.95;0.25;;;11.20;99.90;;;;;;4986578;28;20117;-74
2024/01/22 11:52:18;;;;;;;0.45;0.25;;;11.20;99.90;;;;;;4991585;28;20048;-73
2024/01/22 11:54:55;;;;;;;0.30;0.20;;;11.30;99.90;;;;;;4990888;28;20037;-73
2024/01/22 11:57:21;;;;;;;0.40;0.30;;;11.20;99.90;;;;;;4983184;28;20023;-73
2024/01/22 12:00:05;;;;;;;0.80;0.43;;;11.20;99.90;;;;;;4989350;28;20037;-73
2024/01/22 12:02:32;;;;;;;1.77;0.40;;;11.20;99.90;;;;;;4990296;28;20049;-73
2024/01/22 12:05:12;;;;;;;1.17;0.40;;;11.20;99.90;;;;;;4985586;28;20203;-73
2024/01/22 12:07:49;;;;;;;1.30;0.43;;;11.10;99.90;;;;;;4986926;28;20035;-73
2024/01/22 12:10:25;;;;;;;3.05;0.50;;;11.10;99.90;;;;;;4990162;28;20053;-73
2024/01/22 12:13:08;;;;;;;1.05;0.40;;;11.10;99.90;;;;;;4987482;28;20037;-73
2024/01/22 12:15:33;;;;;;;0.73;0.52;;;11.00;99.90;;;;;;4985622;28;20278;-73
2024/01/22 12:18:01;;;;;;;1.60;0.50;;;10.90;99.90;;;;;;4986900;28;20022;-73
2024/01/22 12:20:28;;;;;;;1.13;0.50;;;11.00;99.90;;;;;;4990938;28;20030;-73
2024/01/22 12:23:04;;;;;;;0.50;0.28;;;10.90;99.90;;;;;;4988465;28;20033;-73
2024/01/22 12:25:34;;;;;;;0.55;0.35;;;10.90;99.90;;;;;;4990623;28;20081;-73
2024/01/22 12:28:10;;;;;;;1.55;0.68;;;10.80;99.90;;;;;;4985894;28;20064;-73
2024/01/22 12:30:36;;;;;;;0.90;0.45;;;10.90;99.90;;;;;;4996520;28;20516;-73
2024/01/22 12:33:02;;;;;;;1.17;0.30;;;10.90;99.90;;;;;;4986634;28;20030;-73
2024/01/22 12:35:28;;;;;;;1.98;0.50;;;10.90;99.90;;;;;;4982955;28;20026;-73
2024/01/22 12:37:54;;;;;;;1.58;0.50;;;10.90;99.90;;;;;;4988125;28;20038;-73
2024/01/22 12:40:20;;;;;;;1.67;0.45;;;10.80;99.90;;;;;;4988166;28;20042;-73
2024/01/22 12:42:48;;;;;;;1.35;0.40;;;10.80;99.90;;;;;;4989173;28;20025;-73
2024/01/22 12:45:17;;;;;;;0.95;0.40;;;10.80;99.90;;;;;;4989194;28;20541;-73
2024/01/22 12:47:44;;;;;;;1.02;0.30;;;10.80;99.90;;;;;;4987568;28;20030;-73
2024/01/22 12:50:10;;;;;;;0.88;0.35;;;10.80;99.90;;;;;;4991019;28;20018;-73
2024/01/22 12:52:37;;;;;;;1.20;0.40;;;10.70;99.90;;;;;;4989574;28;20022;-73
2024/01/22 12:55:03;;;;;;;0.40;0.30;;;10.70;99.90;;;;;;4988528;28;20033;-73